createdAt,value
2018-05-27T00:01:23.981Z,3.57
2018-05-27T00:03:52.049Z,3.57
2018-05-27T00:06:20.809Z,4.13
2018-05-27T00:08:48.943Z,3.97
2018-05-27T00:11:17.793Z,3.33
2018-05-27T00:13:47.183Z,3.80
2018-05-27T00:16:15.259Z,3.57
2018-05-27T00:18:43.336Z,4.50
2018-05-27T00:21:11.877Z,3.83
2018-05-27T00:23:40.709Z,4.27
2018-05-27T00:26:08.798Z,4.10
2018-05-27T00:28:37.754Z,3.40
2018-05-27T00:31:05.813Z,4.80
2018-05-27T00:33:33.917Z,3.83
2018-05-27T00:36:02.885Z,3.80
2018-05-27T00:38:30.949Z,4.00
2018-05-27T00:40:59.119Z,4.37
2018-05-27T00:43:28.341Z,3.93
2018-05-27T00:45:56.437Z,3.70
2018-05-27T00:48:24.510Z,4.00
2018-05-27T00:50:53.219Z,3.00
2018-05-27T00:53:31.856Z,3.20
2018-05-27T00:56:00.662Z,3.50
2018-05-27T00:58:28.718Z,3.50
2018-05-27T01:00:56.817Z,3.80
2018-05-27T01:03:25.790Z,3.20
2018-05-27T01:05:53.867Z,3.60
2018-05-27T01:08:21.954Z,3.97
2018-05-27T01:10:50.374Z,3.90
2018-05-27T01:13:18.464Z,3.33
2018-05-27T01:15:46.542Z,3.77
2018-05-27T01:18:15.146Z,3.60
2018-05-27T01:20:43.248Z,3.30
2018-05-27T01:23:11.310Z,3.77
2018-05-27T01:25:39.690Z,3.93
2018-05-27T01:28:07.758Z,3.40
2018-05-27T01:30:35.834Z,3.13
2018-05-27T01:33:05.106Z,3.57
2018-05-27T01:35:33.176Z,3.53
2018-05-27T01:38:01.252Z,3.70
2018-05-27T01:40:29.934Z,4.00
2018-05-27T01:42:57.994Z,3.80
2018-05-27T01:45:26.161Z,3.87
2018-05-27T01:47:55.066Z,3.77
2018-05-27T01:50:23.166Z,3.83
2018-05-27T01:52:51.242Z,3.37
2018-05-27T01:55:21.741Z,3.43
2018-05-27T01:57:49.803Z,4.37
2018-05-27T02:00:17.883Z,3.90
2018-05-27T02:02:46.126Z,4.27
2018-05-27T02:05:14.982Z,4.30
2018-05-27T02:07:43.058Z,3.73
2018-05-27T02:10:11.334Z,3.90
2018-05-27T02:12:39.394Z,4.63
2018-05-27T02:15:07.474Z,4.00
2018-05-27T02:17:36.842Z,4.07
2018-05-27T02:20:04.906Z,4.07
2018-05-27T02:22:33.101Z,3.87
2018-05-27T02:25:01.502Z,3.97
2018-05-27T02:27:29.576Z,4.43
2018-05-27T02:29:57.911Z,3.97
2018-05-27T02:32:26.430Z,3.80
2018-05-27T02:34:54.504Z,4.13
2018-05-27T02:37:23.437Z,4.40
2018-05-27T02:39:52.699Z,4.20
2018-05-27T02:42:20.766Z,4.60
2018-05-27T02:44:49.306Z,4.10
2018-05-27T02:47:17.522Z,4.27
2018-05-27T02:49:45.590Z,4.40
2018-05-27T02:52:14.139Z,4.47
2018-05-27T02:54:42.677Z,4.07
2018-05-27T02:57:11.535Z,4.80
2018-05-27T02:59:39.900Z,4.10
2018-05-27T03:02:08.089Z,4.07
2018-05-27T03:04:36.184Z,4.20
2018-05-27T03:07:04.711Z,4.33
2018-05-27T03:09:33.289Z,4.60
2018-05-27T03:12:01.365Z,4.50
2018-05-27T03:14:29.845Z,4.40
2018-05-27T03:16:58.367Z,4.70
2018-05-27T03:19:26.449Z,4.63
2018-05-27T03:21:55.785Z,4.90
2018-05-27T03:24:25.061Z,5.20
2018-05-27T03:26:54.000Z,5.40
2018-05-27T03:29:22.583Z,5.23
2018-05-27T03:31:50.811Z,5.10
2018-05-27T03:34:19.650Z,4.80
2018-05-27T03:36:48.323Z,4.60
2018-05-27T03:39:16.454Z,4.80
2018-05-27T03:41:44.530Z,4.77
2018-05-27T03:44:13.782Z,5.13
2018-05-27T03:46:42.337Z,4.80
2018-05-27T03:49:10.402Z,5.80
2018-05-27T03:51:38.900Z,6.13
2018-05-27T03:54:07.537Z,5.53
2018-05-27T03:56:35.603Z,5.00
2018-05-27T03:59:03.809Z,5.00
2018-05-27T04:01:32.900Z,5.83
2018-05-27T04:07:17.850Z,5.60
2018-05-27T04:09:47.327Z,5.87
2018-05-27T04:12:15.393Z,6.10
2018-05-27T04:14:43.456Z,5.90
2018-05-27T04:17:12.451Z,6.40
2018-05-27T04:19:40.526Z,7.60
2018-05-27T04:22:08.620Z,6.40
2018-05-27T04:24:37.296Z,7.43
2018-05-27T04:27:05.456Z,7.90
2018-05-27T04:29:33.920Z,6.50
2018-05-27T04:32:03.524Z,6.33
2018-05-27T04:34:32.341Z,6.80
2018-05-27T04:37:00.426Z,6.37
2018-05-27T04:39:29.582Z,7.37
2018-05-27T04:41:58.432Z,6.60
2018-05-27T04:44:26.504Z,6.37
2018-05-27T04:46:55.143Z,7.03
2018-05-27T04:49:23.253Z,6.13
2018-05-27T04:51:51.312Z,5.93
2018-05-27T04:54:20.305Z,6.60
2018-05-27T04:56:48.389Z,6.67
2018-05-27T04:59:16.507Z,5.83
2018-05-27T05:01:45.102Z,5.63
2018-05-27T05:04:13.174Z,6.17
2018-05-27T05:06:41.385Z,7.33
2018-05-27T05:09:10.241Z,7.20
2018-05-27T05:11:38.305Z,6.57
2018-05-27T05:14:06.381Z,7.40
2018-05-27T05:16:35.375Z,7.57
2018-05-27T05:19:03.463Z,6.57
2018-05-27T05:21:31.545Z,7.23
2018-05-27T05:23:59.998Z,6.90
2018-05-27T05:26:28.187Z,7.00
2018-05-27T05:28:56.260Z,6.17
2018-05-27T05:31:25.033Z,6.67
2018-05-27T05:33:53.107Z,6.73
2018-05-27T05:36:21.275Z,7.47
2018-05-27T05:38:49.889Z,5.93
2018-05-27T05:41:17.959Z,6.80
2018-05-27T05:43:46.080Z,6.90
2018-05-27T05:46:15.069Z,7.63
2018-05-27T05:48:43.907Z,7.33
2018-05-27T05:51:11.995Z,7.40
2018-05-27T05:53:40.927Z,7.23
2018-05-27T05:56:09.018Z,7.47
2018-05-27T05:58:37.125Z,7.10
2018-05-27T06:01:05.883Z,7.60
2018-05-27T06:03:33.946Z,7.60
2018-05-27T06:06:02.065Z,9.10
2018-05-27T06:08:31.019Z,9.03
2018-05-27T06:10:59.099Z,8.30
2018-05-27T06:13:27.226Z,8.50
2018-05-27T06:15:56.465Z,9.23
2018-05-27T06:18:24.573Z,8.43
2018-05-27T06:20:52.643Z,8.00
2018-05-27T06:23:21.901Z,7.60
2018-05-27T06:25:50.037Z,8.30
2018-05-27T06:28:18.067Z,7.70
2018-05-27T06:30:47.233Z,7.97
2018-05-27T06:33:15.319Z,7.93
2018-05-27T06:35:43.386Z,7.30
2018-05-27T06:38:11.613Z,8.60
2018-05-27T06:40:39.717Z,8.40
2018-05-27T06:43:07.799Z,8.30
2018-05-27T06:45:36.690Z,7.37
2018-05-27T06:48:04.801Z,7.50
2018-05-27T06:50:32.881Z,7.83
2018-05-27T06:53:02.108Z,7.63
2018-05-27T06:55:30.157Z,6.90
2018-05-27T06:57:59.057Z,7.00
2018-05-27T07:00:28.503Z,6.80
2018-05-27T07:02:56.582Z,6.87
2018-05-27T07:05:24.714Z,7.80
2018-05-27T07:07:53.337Z,6.80
2018-05-27T07:10:21.419Z,7.23
2018-05-27T07:12:49.536Z,7.93
2018-05-27T07:15:18.763Z,7.60
2018-05-27T07:17:46.969Z,7.23
2018-05-27T07:20:15.026Z,7.23
2018-05-27T07:22:43.570Z,6.70
2018-05-27T07:25:11.718Z,6.83
2018-05-27T07:27:39.791Z,6.73
2018-05-27T07:30:09.342Z,6.17
2018-05-27T07:32:37.482Z,6.43
2018-05-27T07:35:05.621Z,6.30
2018-05-27T07:37:33.909Z,5.90
2018-05-27T07:40:01.993Z,7.10
2018-05-27T07:42:30.063Z,6.00
2018-05-27T07:44:59.625Z,6.20
2018-05-27T07:47:27.701Z,6.30
2018-05-27T07:49:55.798Z,6.17
2018-05-27T07:52:24.454Z,6.20
2018-05-27T07:54:52.550Z,6.30
2018-05-27T07:57:20.640Z,6.37
2018-05-27T07:59:49.020Z,6.20
2018-05-27T08:02:17.083Z,6.80
2018-05-27T08:04:45.917Z,6.13
2018-05-27T08:07:14.322Z,5.60
2018-05-27T08:09:42.393Z,5.50
2018-05-27T08:12:10.471Z,5.97
2018-05-27T08:14:39.046Z,5.90
2018-05-27T08:17:07.131Z,5.80
2018-05-27T08:19:35.819Z,5.10
2018-05-27T08:22:05.050Z,5.37
2018-05-27T08:24:33.907Z,5.90
2018-05-27T08:27:01.993Z,5.67
2018-05-27T08:29:31.053Z,5.50
2018-05-27T08:31:59.182Z,5.20
2018-05-27T08:34:27.269Z,5.77
2018-05-27T08:36:56.048Z,5.20
2018-05-27T08:39:24.947Z,5.20
2018-05-27T08:41:53.109Z,6.00
2018-05-27T08:44:21.967Z,5.60
2018-05-27T08:46:50.053Z,4.63
2018-05-27T08:49:18.138Z,5.00
2018-05-27T08:51:47.068Z,5.33
2018-05-27T08:54:15.159Z,4.90
2018-05-27T08:56:43.272Z,5.30
2018-05-27T08:59:11.982Z,5.60
2018-05-27T09:01:40.067Z,5.10
2018-05-27T09:04:08.154Z,4.90
2018-05-27T09:06:36.840Z,4.80
2018-05-27T09:09:05.779Z,5.40
2018-05-27T09:11:33.871Z,4.63
2018-05-27T09:14:02.403Z,4.90
2018-05-27T09:16:30.566Z,4.60
2018-05-27T09:18:58.635Z,5.10
2018-05-27T09:21:26.891Z,4.53
2018-05-27T09:23:54.973Z,4.60
2018-05-27T09:26:23.066Z,4.40
2018-05-27T09:28:51.279Z,3.60
2018-05-27T09:31:19.429Z,4.10
2018-05-27T09:33:47.515Z,4.07
2018-05-27T09:36:15.729Z,3.60
2018-05-27T09:38:43.829Z,3.83
2018-05-27T09:41:11.973Z,3.20
2018-05-27T09:43:40.291Z,3.47
2018-05-27T09:46:08.396Z,3.77
2018-05-27T09:48:36.478Z,3.47
2018-05-27T09:51:05.050Z,3.60
2018-05-27T09:53:33.195Z,3.40
2018-05-27T09:56:01.267Z,4.03
2018-05-27T09:58:30.237Z,3.73
2018-05-27T10:00:58.325Z,3.60
2018-05-27T10:03:26.417Z,3.83
2018-05-27T10:05:54.541Z,3.60
2018-05-27T10:08:23.819Z,3.50
2018-05-27T10:10:51.922Z,4.40
2018-05-27T10:13:20.060Z,4.33
2018-05-27T10:15:48.154Z,5.27
2018-05-27T10:18:16.229Z,3.97
2018-05-27T10:20:44.618Z,4.20
2018-05-27T10:23:12.714Z,4.10
2018-05-27T10:25:41.567Z,4.27
2018-05-27T10:28:09.781Z,4.47
2018-05-27T10:30:38.675Z,4.43
2018-05-27T10:33:06.765Z,4.23
2018-05-27T10:35:34.998Z,4.13
2018-05-27T10:38:03.054Z,3.70
2018-05-27T10:40:31.125Z,3.70
2018-05-27T10:42:59.282Z,4.17
2018-05-27T10:45:27.373Z,4.10
2018-05-27T10:47:55.509Z,3.53
2018-05-27T10:50:23.785Z,4.10
2018-05-27T10:52:51.867Z,3.83
2018-05-27T10:55:20.402Z,3.97
2018-05-27T10:57:48.554Z,3.80
2018-05-27T11:00:16.634Z,4.33
2018-05-27T11:02:45.268Z,3.97
2018-05-27T11:05:13.360Z,4.27
2018-05-27T11:07:41.458Z,3.83
2018-05-27T11:10:10.741Z,4.20
2018-05-27T11:12:38.800Z,4.03
2018-05-27T11:15:06.882Z,3.93
2018-05-27T11:17:35.165Z,4.00
2018-05-27T11:20:03.251Z,3.90
2018-05-27T11:22:31.329Z,3.93
2018-05-27T11:25:00.364Z,4.30
2018-05-27T11:27:28.473Z,4.20
2018-05-27T11:29:56.601Z,4.30
2018-05-27T11:32:24.786Z,3.53
2018-05-27T11:34:52.910Z,3.80
2018-05-27T11:37:20.972Z,4.00
2018-05-27T11:39:49.186Z,4.10
2018-05-27T11:42:17.267Z,4.20
2018-05-27T11:44:45.340Z,3.80
2018-05-27T11:47:13.792Z,4.57
2018-05-27T11:49:42.645Z,3.93
2018-05-27T11:52:10.714Z,4.40
2018-05-27T11:54:39.219Z,4.00
2018-05-27T11:57:07.420Z,4.47
2018-05-27T11:59:35.753Z,4.23
2018-05-27T12:02:04.193Z,4.30
2018-05-27T12:04:32.222Z,4.10
2018-05-27T12:07:00.400Z,5.17
2018-05-27T12:09:29.008Z,5.10
2018-05-27T12:11:57.409Z,4.87
2018-05-27T12:14:25.476Z,4.30
2018-05-27T12:16:54.098Z,4.70
2018-05-27T12:19:22.235Z,4.80
2018-05-27T12:21:50.315Z,4.90
2018-05-27T12:24:18.457Z,4.97
2018-05-27T12:26:46.549Z,4.90
2018-05-27T12:29:14.645Z,4.70
2018-05-27T12:31:42.859Z,4.60
2018-05-27T12:34:10.955Z,5.00
2018-05-27T12:36:39.079Z,4.53
2018-05-27T12:39:07.253Z,4.73
2018-05-27T12:41:35.322Z,4.60
2018-05-27T12:44:03.394Z,4.97
2018-05-27T12:46:31.781Z,4.43
2018-05-27T12:49:00.614Z,4.73
2018-05-27T12:51:28.736Z,4.60
2018-05-27T12:53:56.951Z,5.20
2018-05-27T12:56:25.023Z,5.00
2018-05-27T12:58:53.093Z,4.37
2018-05-27T13:01:21.852Z,4.60
2018-05-27T13:03:50.685Z,4.87
2018-05-27T13:06:19.531Z,5.10
2018-05-27T13:08:48.720Z,4.83
2018-05-27T13:11:16.798Z,5.30
2018-05-27T13:13:46.050Z,5.20
2018-05-27T13:16:14.480Z,4.93
2018-05-27T13:18:42.552Z,5.30
2018-05-27T13:21:11.390Z,5.60
2018-05-27T13:23:39.975Z,5.50
2018-05-27T13:26:08.571Z,4.70
2018-05-27T13:28:36.621Z,4.97
2018-05-27T13:31:04.714Z,5.37
2018-05-27T13:33:33.225Z,5.10
2018-05-27T13:36:01.320Z,5.60
2018-05-27T13:38:29.435Z,4.97
2018-05-27T13:40:58.044Z,5.67
2018-05-27T13:43:26.145Z,5.07
2018-05-27T13:45:54.230Z,5.10
2018-05-27T13:48:22.618Z,5.43
2018-05-27T13:50:50.746Z,5.60
2018-05-27T13:53:18.838Z,5.30
2018-05-27T13:55:49.004Z,5.90
2018-05-27T13:58:17.136Z,4.50
2018-05-27T14:00:45.235Z,5.20
2018-05-27T14:03:13.459Z,5.00
2018-05-27T14:05:41.550Z,5.97
2018-05-27T14:08:09.638Z,5.23
2018-05-27T14:10:37.858Z,5.00
2018-05-27T14:13:05.982Z,5.27
2018-05-27T14:15:34.266Z,5.20
2018-05-27T14:18:02.482Z,5.80
2018-05-27T14:20:30.572Z,5.00
2018-05-27T14:22:58.686Z,5.20
2018-05-27T14:25:26.817Z,5.03
2018-05-27T14:27:54.899Z,4.83
2018-05-27T14:30:23.011Z,4.70
2018-05-27T14:32:51.225Z,4.97
2018-05-27T14:35:19.293Z,5.20
2018-05-27T14:37:47.388Z,5.00
2018-05-27T14:40:16.303Z,5.30
2018-05-27T14:42:44.419Z,4.80
2018-05-27T14:45:12.499Z,4.73
2018-05-27T14:47:40.725Z,4.83
2018-05-27T14:50:08.830Z,5.00
2018-05-27T14:52:36.917Z,4.43
2018-05-27T14:55:05.147Z,4.87
2018-05-27T14:57:33.219Z,4.47
2018-05-27T15:00:01.370Z,5.00
2018-05-27T15:02:29.603Z,5.33
2018-05-27T15:04:57.687Z,4.90
2018-05-27T15:07:25.863Z,4.90
2018-05-27T15:09:54.408Z,4.90
2018-05-27T15:12:22.497Z,4.30
2018-05-27T15:14:50.591Z,4.63
2018-05-27T15:17:19.374Z,4.53
2018-05-27T15:19:47.443Z,4.60
2018-05-27T15:22:15.611Z,4.00
2018-05-27T15:24:44.350Z,5.00
2018-05-27T15:27:12.447Z,4.57
2018-05-27T15:29:41.111Z,4.70
2018-05-27T15:32:09.363Z,5.23
2018-05-27T15:34:40.212Z,4.33
2018-05-27T15:37:09.071Z,4.97
2018-05-27T15:39:38.499Z,4.03
2018-05-27T15:42:06.573Z,5.17
2018-05-27T15:44:34.723Z,4.50
2018-05-27T15:47:03.719Z,4.53
2018-05-27T15:49:32.555Z,4.37
2018-05-27T15:52:00.625Z,4.53
2018-05-27T15:54:28.862Z,4.67
2018-05-27T15:56:57.211Z,4.20
2018-05-27T15:59:25.310Z,5.27
2018-05-27T16:01:53.411Z,4.23
2018-05-27T16:04:21.660Z,5.00
2018-05-27T16:06:49.799Z,4.33
2018-05-27T16:09:17.880Z,4.83
2018-05-27T16:11:46.390Z,5.00
2018-05-27T16:14:14.538Z,4.80
2018-05-27T16:16:42.602Z,4.20
2018-05-27T16:19:11.019Z,4.67
2018-05-27T16:21:39.078Z,4.87
2018-05-27T16:24:07.208Z,5.00
2018-05-27T16:26:35.420Z,4.70
2018-05-27T16:29:03.512Z,5.87
2018-05-27T16:31:31.594Z,5.20
2018-05-27T16:33:59.835Z,4.97
2018-05-27T16:36:28.757Z,4.80
2018-05-27T16:38:56.827Z,5.40
2018-05-27T16:41:25.815Z,5.43
2018-05-27T16:43:54.685Z,5.00
2018-05-27T16:46:22.793Z,4.43
2018-05-27T16:48:51.381Z,4.93
2018-05-27T16:51:19.454Z,5.60
2018-05-27T16:53:47.564Z,5.77
2018-05-27T16:56:15.993Z,5.30
2018-05-27T16:58:44.093Z,5.20
2018-05-27T17:01:12.183Z,4.70
2018-05-27T17:03:41.171Z,6.20
2018-05-27T17:06:09.335Z,4.90
2018-05-27T17:08:37.428Z,4.97
2018-05-27T17:11:07.237Z,4.60
2018-05-27T17:13:35.365Z,4.90
2018-05-27T17:16:03.463Z,5.00
2018-05-27T17:18:31.683Z,4.73
2018-05-27T17:20:59.975Z,5.00
2018-05-27T17:23:28.035Z,5.10
2018-05-27T17:25:56.257Z,4.73
2018-05-27T17:28:24.357Z,5.00
2018-05-27T17:30:52.436Z,4.63
2018-05-27T17:33:20.643Z,5.27
2018-05-27T17:35:48.753Z,4.80
2018-05-27T17:38:16.833Z,5.10
2018-05-27T17:40:45.278Z,5.97
2018-05-27T17:43:13.373Z,5.47
2018-05-27T17:45:41.554Z,5.83
2018-05-27T17:48:11.441Z,5.33
2018-05-27T17:50:39.526Z,12.07
2018-05-27T17:53:07.688Z,6.30
2018-05-27T17:55:36.018Z,5.60
2018-05-27T17:58:04.097Z,5.57
2018-05-27T18:00:32.193Z,5.50
2018-05-27T18:03:00.356Z,5.73
2018-05-27T18:05:28.517Z,5.20
2018-05-27T18:07:57.378Z,5.20
2018-05-27T18:10:25.650Z,5.70
2018-05-27T18:12:54.508Z,5.73
2018-05-27T18:15:22.593Z,5.33
2018-05-27T18:17:51.090Z,5.80
2018-05-27T18:20:19.225Z,7.40
2018-05-27T18:22:47.546Z,5.57
2018-05-27T18:25:15.745Z,5.37
2018-05-27T18:27:43.843Z,6.10
2018-05-27T18:30:11.973Z,5.80
2018-05-27T18:32:40.350Z,5.40
2018-05-27T18:35:09.258Z,5.63
2018-05-27T18:37:37.337Z,6.03
2018-05-27T18:40:05.479Z,6.13
2018-05-27T18:42:33.558Z,5.80
2018-05-27T18:45:01.661Z,6.20
2018-05-27T18:47:30.117Z,5.80
2018-05-27T18:49:58.963Z,5.90
2018-05-27T18:52:27.072Z,5.90
2018-05-27T18:54:56.227Z,6.30
2018-05-27T18:57:24.285Z,6.37
2018-05-27T18:59:52.399Z,6.10
2018-05-27T19:02:20.668Z,6.60
2018-05-27T19:04:48.744Z,7.13
2018-05-27T19:07:16.846Z,6.43
2018-05-27T19:09:46.118Z,6.67
2018-05-27T19:12:14.971Z,6.57
2018-05-27T19:14:43.115Z,5.90
2018-05-27T19:17:11.879Z,6.47
2018-05-27T19:19:40.719Z,5.80
2018-05-27T19:22:09.575Z,6.30
2018-05-27T19:24:38.399Z,6.93
2018-05-27T19:27:06.491Z,6.20
2018-05-27T19:29:34.634Z,6.73
2018-05-27T19:32:03.060Z,6.60
2018-05-27T19:34:31.909Z,6.57
2018-05-27T19:37:00.002Z,6.20
2018-05-27T19:39:28.147Z,6.00
2018-05-27T19:41:56.227Z,6.17
2018-05-27T19:44:24.319Z,6.70
2018-05-27T19:46:52.445Z,6.23
2018-05-27T19:49:20.605Z,5.83
2018-05-27T19:51:48.638Z,6.07
2018-05-27T19:54:16.909Z,5.27
2018-05-27T19:56:45.033Z,5.80
2018-05-27T19:59:13.114Z,6.03
2018-05-27T20:01:41.445Z,6.00
2018-05-27T20:04:09.528Z,5.40
2018-05-27T20:06:38.388Z,6.50
2018-05-27T20:09:06.888Z,5.80
2018-05-27T20:11:35.768Z,5.70
2018-05-27T20:14:03.848Z,6.80
2018-05-27T20:16:32.329Z,6.17
2018-05-27T20:19:00.526Z,6.40
2018-05-27T20:21:28.606Z,6.17
2018-05-27T20:23:57.159Z,6.30
2018-05-27T20:26:26.622Z,6.00
2018-05-27T20:28:54.696Z,6.00
2018-05-27T20:31:23.208Z,6.27
2018-05-27T20:33:51.293Z,6.50
2018-05-27T20:36:20.140Z,7.13
2018-05-27T20:38:48.961Z,5.40
2018-05-27T20:41:17.025Z,5.83
2018-05-27T20:43:45.119Z,5.70
2018-05-27T20:46:14.410Z,6.43
2018-05-27T20:48:43.366Z,6.87
2018-05-27T20:51:11.496Z,5.77
2018-05-27T20:53:39.641Z,6.40
2018-05-27T20:56:08.527Z,6.37
2018-05-27T20:58:36.595Z,6.10
2018-05-27T21:01:04.992Z,5.90
2018-05-27T21:03:33.875Z,5.20
2018-05-27T21:06:01.962Z,5.83
2018-05-27T21:08:30.265Z,5.50
2018-05-27T21:10:58.373Z,6.40
2018-05-27T21:13:26.464Z,6.23
2018-05-27T21:15:54.636Z,6.17
2018-05-27T21:18:22.721Z,5.23
2018-05-27T21:20:51.580Z,6.17
2018-05-27T21:23:20.076Z,5.77
2018-05-27T21:25:48.145Z,6.10
2018-05-27T21:28:17.306Z,5.80
2018-05-27T21:30:45.444Z,6.07
2018-05-27T21:33:13.530Z,6.37
2018-05-27T21:35:41.613Z,6.30
2018-05-27T21:38:10.036Z,6.30
2018-05-27T21:40:38.955Z,7.13
2018-05-27T21:45:41.662Z,7.90
2018-05-27T21:48:09.750Z,8.40
2018-05-27T21:50:37.838Z,8.00
2018-05-27T21:53:06.176Z,8.10
2018-05-27T21:55:34.261Z,7.40
2018-05-27T21:58:02.334Z,7.40
2018-05-27T22:00:30.684Z,6.83
2018-05-27T22:02:59.536Z,6.53
2018-05-27T22:05:27.678Z,5.90
2018-05-27T22:07:56.446Z,5.73
2018-05-27T22:10:24.522Z,5.33
2018-05-27T22:12:52.640Z,5.17
2018-05-27T22:15:20.952Z,4.70
2018-05-27T22:17:49.876Z,4.43
2018-05-27T22:20:17.983Z,4.20
2018-05-27T22:22:46.392Z,4.43
2018-05-27T22:25:15.230Z,3.53
2018-05-27T22:27:43.306Z,4.30
2018-05-27T22:30:11.794Z,4.20
2018-05-27T22:32:39.863Z,3.53
2018-05-27T22:35:07.956Z,3.30
2018-05-27T22:37:36.332Z,3.50
2018-05-27T22:40:04.400Z,3.50
2018-05-27T22:42:32.491Z,3.20
2018-05-27T22:45:01.212Z,3.40
2018-05-27T22:47:29.297Z,3.33
2018-05-27T22:49:57.398Z,3.60
2018-05-27T22:52:25.991Z,3.23
2018-05-27T22:54:54.064Z,3.57
2018-05-27T22:57:22.189Z,3.10
2018-05-27T22:59:50.509Z,3.27
2018-05-27T23:02:18.589Z,3.17
2018-05-27T23:04:46.696Z,3.20
2018-05-27T23:07:15.581Z,3.00
2018-05-27T23:09:43.723Z,3.53
2018-05-27T23:12:11.815Z,2.60
2018-05-27T23:14:41.100Z,3.77
2018-05-27T23:17:09.961Z,3.53
2018-05-27T23:19:38.886Z,3.50
2018-05-27T23:22:07.448Z,3.77
2018-05-27T23:24:35.579Z,3.43
2018-05-27T23:27:03.735Z,3.60
2018-05-27T23:29:32.285Z,4.23
2018-05-27T23:32:00.704Z,3.87
2018-05-27T23:34:29.931Z,3.47
2018-05-27T23:36:58.642Z,4.00
2018-05-27T23:39:26.782Z,4.10
2018-05-27T23:41:54.855Z,3.63
2018-05-27T23:44:23.470Z,5.10
2018-05-27T23:46:51.605Z,4.70
2018-05-27T23:49:19.757Z,5.87
2018-05-27T23:51:48.075Z,5.17
2018-05-27T23:54:16.145Z,5.63
2018-05-27T23:56:44.226Z,5.30
2018-05-27T23:59:12.536Z,5.47
